Time;durP1;ratioP1;P1;durP2;ratioP2;P2;SDS_P1;SDS_P2;PMS_P1;PMS_P2;Temp;Humidity;BMP_temperature;BMP_pressure;BME280_temperature;BME280_humidity;BME280_pressure;Samples;Min_cycle;Max_cycle;Signal;HPM_P1;HPM_P2
2024/01/11 00:00:32;;;;;;;8.23;3.78;;;-2.00;64.30;;;;;;5013678;28;20026;-77
2024/01/11 00:02:57;;;;;;;9.73;4.25;;;-2.10;64.30;;;;;;5012501;28;20033;-78
2024/01/11 00:05:23;;;;;;;8.50;4.20;;;-2.00;64.40;;;;;;5012130;28;20368;-78
2024/01/11 00:07:49;;;;;;;10.05;4.75;;;-2.10;64.30;;;;;;5014896;28;20026;-78
2024/01/11 00:10:17;;;;;;;9.25;4.93;;;-2.10;64.40;;;;;;5013141;28;20489;-80
2024/01/11 00:12:43;;;;;;;10.00;4.75;;;-2.10;64.60;;;;;;5009246;28;20091;-79
2024/01/11 00:15:08;;;;;;;9.57;4.95;;;-2.20;64.50;;;;;;5013144;28;20493;-80
2024/01/11 00:17:34;;;;;;;13.30;5.70;;;-2.20;64.60;;;;;;5012435;28;20018;-76
2024/01/11 00:20:00;;;;;;;8.90;4.80;;;-2.20;64.70;;;;;;5011469;28;20473;-80
2024/01/11 00:22:26;;;;;;;8.85;4.53;;;-2.20;64.80;;;;;;5012354;28;20028;-76
2024/01/11 00:24:51;;;;;;;8.18;3.90;;;-2.20;64.80;;;;;;5012597;28;20097;-80
2024/01/11 00:27:17;;;;;;;9.65;4.53;;;-2.20;64.80;;;;;;5012027;28;20022;-80
2024/01/11 00:29:42;;;;;;;7.07;4.20;;;-2.30;64.80;;;;;;5009863;28;20037;-79
2024/01/11 00:32:08;;;;;;;10.60;4.57;;;-2.30;64.90;;;;;;5011635;28;20044;-80
2024/01/11 00:34:35;;;;;;;10.23;4.85;;;-2.30;65.00;;;;;;5009342;28;20477;-77
2024/01/11 00:37:01;;;;;;;8.50;4.72;;;-2.40;65.00;;;;;;5009128;28;20128;-77
2024/01/11 00:39:27;;;;;;;8.88;4.32;;;-2.40;65.10;;;;;;5011454;28;20101;-77
2024/01/11 00:41:52;;;;;;;10.85;4.43;;;-2.40;65.20;;;;;;5010655;28;20052;-80
2024/01/11 00:44:18;;;;;;;9.23;4.38;;;-2.50;65.10;;;;;;5010434;28;20064;-78
2024/01/11 00:46:43;;;;;;;8.85;4.57;;;-2.50;65.20;;;;;;5004918;28;20030;-80
2024/01/11 00:49:09;;;;;;;9.82;5.07;;;-2.50;65.30;;;;;;5011006;28;20504;-79
2024/01/11 00:51:34;;;;;;;9.25;4.53;;;-2.50;65.40;;;;;;5011074;28;20034;-79
2024/01/11 00:54:00;;;;;;;8.25;4.60;;;-2.50;65.50;;;;;;5009751;28;20497;-81
2024/01/11 00:56:26;;;;;;;10.55;5.30;;;-2.50;65.50;;;;;;5010643;28;20467;-78
2024/01/11 00:58:52;;;;;;;11.10;5.20;;;-2.60;65.50;;;;;;5011207;28;20501;-80
2024/01/11 01:01:17;;;;;;;7.60;4.25;;;-2.60;65.50;;;;;;5011480;28;20030;-77
2024/01/11 01:03:43;;;;;;;8.00;4.13;;;-2.60;65.60;;;;;;5006231;28;20030;-79
2024/01/11 01:06:09;;;;;;;7.70;4.13;;;-2.60;65.60;;;;;;5010907;28;20018;-78
2024/01/11 01:08:34;;;;;;;7.00;3.90;;;-2.60;65.60;;;;;;5009707;28;20034;-79
2024/01/11 01:11:00;;;;;;;10.63;4.32;;;-2.60;65.60;;;;;;5010249;28;20049;-78
2024/01/11 01:13:25;;;;;;;9.30;4.15;;;-2.60;65.70;;;;;;5010276;28;20036;-77
2024/01/11 01:15:51;;;;;;;8.82;4.18;;;-2.60;65.80;;;;;;5010334;28;20030;-78
2024/01/11 01:18:16;;;;;;;8.82;4.35;;;-2.60;65.70;;;;;;5008425;28;20059;-77
2024/01/11 01:20:42;;;;;;;9.15;4.50;;;-2.60;65.80;;;;;;5006248;28;20026;-79
2024/01/11 01:23:07;;;;;;;8.45;4.40;;;-2.60;65.80;;;;;;5010184;28;20494;-78
2024/01/11 01:25:33;;;;;;;7.95;3.70;;;-2.60;65.90;;;;;;5009441;28;20489;-78
2024/01/11 01:28:00;;;;;;;7.32;4.13;;;-2.60;66.00;;;;;;5009736;28;20033;-77
2024/01/11 01:30:26;;;;;;;6.80;3.97;;;-2.70;66.00;;;;;;5010723;28;20022;-77
2024/01/11 01:32:52;;;;;;;7.40;4.00;;;-2.60;66.00;;;;;;5009027;28;20022;-79
2024/01/11 01:35:18;;;;;;;7.65;3.97;;;-2.70;66.00;;;;;;5010433;28;20045;-76
2024/01/11 01:37:43;;;;;;;7.38;3.58;;;-2.70;66.00;;;;;;5013083;28;20022;-76
2024/01/11 01:40:09;;;;;;;7.68;4.00;;;-2.70;66.10;;;;;;5010664;28;20030;-80
2024/01/11 01:42:35;;;;;;;8.20;3.88;;;-2.70;66.20;;;;;;5009087;28;20101;-79
2024/01/11 01:45:00;;;;;;;8.45;4.20;;;-2.80;66.30;;;;;;5008542;28;20109;-77
2024/01/11 01:47:27;;;;;;;9.05;4.10;;;-2.80;66.30;;;;;;5007947;28;20021;-76
2024/01/11 01:49:54;;;;;;;7.30;3.83;;;-2.80;66.40;;;;;;5009490;28;20458;-76
2024/01/11 01:52:21;;;;;;;8.98;4.70;;;-2.80;66.50;;;;;;5010606;28;20018;-80
2024/01/11 01:54:48;;;;;;;7.75;4.18;;;-2.90;66.50;;;;;;5006706;28;20065;-76
2024/01/11 01:57:16;;;;;;;8.68;4.00;;;-2.90;66.60;;;;;;5010183;28;20014;-77
2024/01/11 01:59:43;;;;;;;9.18;4.85;;;-2.90;66.70;;;;;;5010053;28;20021;-78
2024/01/11 02:02:10;;;;;;;10.25;5.20;;;-3.00;66.70;;;;;;5010285;28;20029;-80
2024/01/11 02:04:36;;;;;;;9.80;4.93;;;-3.00;66.80;;;;;;5009196;28;20032;-79
2024/01/11 02:07:02;;;;;;;9.20;4.90;;;-3.10;66.90;;;;;;5007296;28;20026;-79
2024/01/11 02:09:28;;;;;;;8.95;4.35;;;-3.10;67.00;;;;;;5010085;28;20060;-77
2024/01/11 02:11:54;;;;;;;9.40;5.15;;;-3.10;67.00;;;;;;5006870;28;20030;-79
2024/01/11 02:14:20;;;;;;;8.82;5.00;;;-3.10;67.10;;;;;;5010809;28;20055;-79
2024/01/11 02:16:46;;;;;;;11.00;5.35;;;-3.20;67.10;;;;;;5009251;28;20093;-79
2024/01/11 02:19:16;;;;;;;10.93;5.28;;;-3.20;67.20;;;;;;5009925;28;20029;-80
2024/01/11 02:21:43;;;;;;;9.18;4.80;;;-3.30;67.30;;;;;;5008134;28;20014;-78
2024/01/11 02:24:10;;;;;;;9.38;4.65;;;-3.30;67.40;;;;;;5009436;28;20032;-78
2024/01/11 02:26:35;;;;;;;9.75;5.78;;;-3.30;67.60;;;;;;5009582;28;20084;-77
2024/01/11 02:29:01;;;;;;;10.25;5.20;;;-3.40;67.60;;;;;;5009571;28;20328;-79
2024/01/11 02:31:27;;;;;;;9.23;5.20;;;-3.40;67.70;;;;;;5006774;28;20026;-78
2024/01/11 02:33:54;;;;;;;10.05;5.30;;;-3.40;67.80;;;;;;5006194;28;20100;-78
2024/01/11 02:36:23;;;;;;;8.73;5.07;;;-3.40;67.90;;;;;;5009770;28;20298;-79
2024/01/11 02:38:50;;;;;;;9.20;4.85;;;-3.40;68.00;;;;;;5008244;28;20018;-79
2024/01/11 02:41:16;;;;;;;10.18;5.07;;;-3.40;68.10;;;;;;5008205;28;20014;-79
2024/01/11 02:43:48;;;;;;;10.30;5.07;;;-3.30;68.10;;;;;;5007955;28;20014;-78
2024/01/11 02:46:15;;;;;;;;;;;-3.30;68.10;;;;;;5017306;28;20080;-77
2024/01/11 02:48:40;;;;;;;10.00;5.22;;;-3.30;68.10;;;;;;5008864;28;20156;-80
2024/01/11 02:51:06;;;;;;;9.88;4.80;;;-3.30;68.10;;;;;;5007773;28;20110;-79
2024/01/11 02:53:34;;;;;;;11.20;5.30;;;-3.30;68.10;;;;;;5008830;28;20104;-79
2024/01/11 02:56:00;;;;;;;8.55;5.05;;;-3.30;68.10;;;;;;5009962;28;20114;-77
2024/01/11 02:58:25;;;;;;;9.27;4.70;;;-3.30;68.10;;;;;;5005954;28;20481;-79
2024/01/11 03:00:51;;;;;;;8.48;4.70;;;-3.20;68.20;;;;;;5013120;28;20069;-77
2024/01/11 03:03:16;;;;;;;9.43;4.45;;;-3.20;68.20;;;;;;5011474;28;20034;-79
2024/01/11 03:05:42;;;;;;;7.15;4.03;;;-3.20;68.20;;;;;;5011481;28;20042;-80
2024/01/11 03:08:08;;;;;;;7.25;4.25;;;-3.20;68.20;;;;;;5012979;28;20018;-78
2024/01/11 03:10:33;;;;;;;8.48;3.85;;;-3.20;68.20;;;;;;5011596;28;20572;-79
2024/01/11 03:12:59;;;;;;;7.15;3.65;;;-3.20;68.30;;;;;;5011765;28;20105;-77
2024/01/11 03:15:25;;;;;;;8.35;4.18;;;-3.20;68.40;;;;;;5009222;28;20030;-79
2024/01/11 03:17:51;;;;;;;8.48;4.35;;;-3.20;68.40;;;;;;5009276;28;20061;-78
2024/01/11 03:20:20;;;;;;;6.90;4.10;;;-3.20;68.40;;;;;;5010079;28;20022;-80
2024/01/11 03:22:46;;;;;;;9.30;4.80;;;-3.30;68.40;;;;;;5009776;28;20032;-79
2024/01/11 03:25:12;;;;;;;9.63;5.18;;;-3.30;68.60;;;;;;5012306;28;20026;-80
2024/01/11 03:27:37;;;;;;;11.05;5.57;;;-3.40;69.30;;;;;;5010959;28;20037;-80
2024/01/11 03:30:04;;;;;;;10.02;5.38;;;-3.40;68.90;;;;;;5009387;28;20038;-79
2024/01/11 03:32:30;;;;;;;8.55;5.10;;;-3.50;68.90;;;;;;5012732;28;20091;-77
2024/01/11 03:34:55;;;;;;;10.63;5.53;;;-3.60;69.00;;;;;;5010789;28;20056;-77
2024/01/11 03:37:21;;;;;;;10.98;5.25;;;-3.50;69.20;;;;;;5011998;28;20025;-80
2024/01/11 03:39:46;;;;;;;10.63;4.90;;;-3.50;69.20;;;;;;5012757;28;20022;-78
2024/01/11 03:42:12;;;;;;;9.60;5.07;;;-3.60;69.20;;;;;;5012855;28;20033;-77
2024/01/11 03:44:38;;;;;;;8.10;4.78;;;-3.50;69.40;;;;;;5012192;28;20473;-80
2024/01/11 03:47:03;;;;;;;8.25;4.72;;;-3.60;69.30;;;;;;5008987;28;20026;-78
2024/01/11 03:49:29;;;;;;;10.23;4.78;;;-3.60;69.40;;;;;;5011620;28;20026;-79
2024/01/11 03:51:54;;;;;;;9.38;4.70;;;-3.50;69.50;;;;;;5009675;28;20041;-76
2024/01/11 03:54:20;;;;;;;8.98;4.85;;;-3.50;69.60;;;;;;5009488;28;20017;-77
2024/01/11 03:56:46;;;;;;;12.55;5.82;;;-3.50;69.50;;;;;;5003754;28;20076;-78
2024/01/11 03:59:11;;;;;;;9.05;4.78;;;-3.50;69.50;;;;;;5009058;28;20414;-76
2024/01/11 04:01:43;;;;;;;11.23;5.45;;;-3.50;69.50;;;;;;5010101;28;20033;-78
2024/01/11 04:04:09;;;;;;;9.93;5.10;;;-3.60;69.50;;;;;;5008154;28;20034;-79
2024/01/11 04:06:34;;;;;;;11.00;5.47;;;-3.60;69.60;;;;;;5011032;28;20022;-77
2024/01/11 04:09:00;;;;;;;11.60;6.13;;;-3.60;69.80;;;;;;5010974;28;20452;-79
2024/01/11 04:11:29;;;;;;;11.90;5.82;;;-3.70;69.80;;;;;;5008422;28;20048;-78
2024/01/11 04:13:55;;;;;;;10.10;5.38;;;-3.60;70.00;;;;;;5006652;28;20042;-77
2024/01/11 04:16:21;;;;;;;11.00;5.60;;;-3.70;70.10;;;;;;5008840;28;20029;-78
2024/01/11 04:18:46;;;;;;;10.50;5.35;;;-3.70;70.10;;;;;;5010440;28;20022;-81
2024/01/11 04:21:28;;;;;;;11.15;5.85;;;-3.70;70.20;;;;;;5009744;28;20037;-77
2024/01/11 04:23:54;;;;;;;12.45;6.00;;;-3.70;70.30;;;;;;5011487;28;20145;-78
2024/01/11 04:26:20;;;;;;;10.68;5.47;;;-3.80;70.20;;;;;;5011505;28;20056;-78
2024/01/11 04:28:46;;;;;;;13.02;6.07;;;-3.80;70.30;;;;;;5009737;28;20026;-79
2024/01/11 04:31:14;;;;;;;11.27;5.60;;;-3.80;70.40;;;;;;5012373;28;20421;-78
2024/01/11 04:33:42;;;;;;;12.52;6.38;;;-3.90;70.50;;;;;;5010507;28;20405;-78
2024/01/11 04:36:08;;;;;;;11.80;6.32;;;-3.90;70.60;;;;;;5011034;28;20022;-78
2024/01/11 04:38:34;;;;;;;13.13;6.13;;;-3.90;70.70;;;;;;5008752;28;20355;-78
2024/01/11 04:41:00;;;;;;;11.60;5.53;;;-3.90;70.80;;;;;;5010443;28;20048;-79
2024/01/11 04:43:25;;;;;;;10.13;5.32;;;-3.90;71.00;;;;;;5008024;28;20033;-77
2024/01/11 04:45:51;;;;;;;12.00;6.03;;;-3.90;71.00;;;;;;5010442;28;20099;-77
2024/01/11 04:48:18;;;;;;;12.05;6.22;;;-3.90;71.20;;;;;;5009729;28;20029;-76
2024/01/11 04:50:44;;;;;;;13.32;6.35;;;-4.00;71.10;;;;;;5007143;28;20022;-78
2024/01/11 04:53:09;;;;;;;11.93;6.00;;;-4.00;71.20;;;;;;5010908;28;20113;-77
2024/01/11 04:55:35;;;;;;;10.57;5.78;;;-4.00;71.30;;;;;;5011429;28;20090;-77
2024/01/11 04:58:00;;;;;;;11.40;5.50;;;-4.00;71.30;;;;;;5010598;28;20026;-78
2024/01/11 05:00:26;;;;;;;10.95;5.45;;;-3.90;71.40;;;;;;5011017;28;20043;-78
2024/01/11 05:02:52;;;;;;;10.77;5.55;;;-3.90;71.20;;;;;;5010476;28;20044;-77
2024/01/11 05:05:17;;;;;;;12.07;6.10;;;-3.90;71.30;;;;;;5010560;28;20057;-77
2024/01/11 05:07:43;;;;;;;11.98;5.63;;;-3.90;71.30;;;;;;5006570;28;20037;-79
2024/01/11 05:10:08;;;;;;;12.38;5.72;;;-3.90;71.40;;;;;;5010178;28;20018;-76
2024/01/11 05:12:35;;;;;;;11.85;5.97;;;-3.90;71.40;;;;;;5010257;28;20184;-78
2024/01/11 05:15:00;;;;;;;14.40;6.78;;;-4.00;71.40;;;;;;5009835;28;20079;-77
2024/01/11 05:17:26;;;;;;;15.88;8.18;;;-4.00;71.50;;;;;;5008664;28;20057;-79
2024/01/11 05:19:52;;;;;;;12.93;6.78;;;-4.00;71.70;;;;;;5009820;28;20022;-76
2024/01/11 05:22:18;;;;;;;11.70;6.22;;;-4.00;71.80;;;;;;5008497;28;20158;-81
2024/01/11 05:24:43;;;;;;;14.95;7.25;;;-4.00;71.80;;;;;;5007535;28;20052;-80
2024/01/11 05:27:09;;;;;;;13.27;6.95;;;-4.00;71.90;;;;;;5009322;28;20120;-76
2024/01/11 05:29:34;;;;;;;14.52;7.63;;;-4.00;72.00;;;;;;5008271;28;20111;-78
2024/01/11 05:32:00;;;;;;;11.85;6.28;;;-4.00;72.00;;;;;;5007920;28;20401;-77
2024/01/11 05:34:26;;;;;;;12.45;6.20;;;-4.00;72.00;;;;;;5008147;28;20061;-80
2024/01/11 05:36:51;;;;;;;12.63;5.82;;;-4.00;72.00;;;;;;5009307;28;20041;-76
2024/01/11 05:39:17;;;;;;;11.95;5.70;;;-4.00;72.00;;;;;;5009098;28;20093;-78
2024/01/11 05:41:46;;;;;;;11.48;5.38;;;-3.90;72.00;;;;;;5007528;28;20022;-78
2024/01/11 05:44:11;;;;;;;11.95;6.22;;;-3.90;71.90;;;;;;5007134;28;20481;-79
2024/01/11 05:46:37;;;;;;;9.40;5.63;;;-3.90;71.90;;;;;;5009634;28;20092;-76
2024/01/11 05:49:03;;;;;;;12.02;6.65;;;-4.00;71.90;;;;;;5009250;28;20064;-78
2024/01/11 05:51:29;;;;;;;13.30;6.03;;;-4.00;72.00;;;;;;5008639;28;20034;-79
2024/01/11 05:53:55;;;;;;;11.98;6.25;;;-3.90;72.20;;;;;;5007413;28;20033;-79
2024/01/11 05:56:20;;;;;;;10.20;5.05;;;-3.90;72.30;;;;;;5008761;28;20026;-78
2024/01/11 05:58:46;;;;;;;9.68;5.20;;;-3.90;72.30;;;;;;5005300;28;20044;-77
2024/01/11 06:01:12;;;;;;;10.27;5.38;;;-3.90;72.30;;;;;;5005375;28;20018;-79
2024/01/11 06:03:38;;;;;;;9.32;5.03;;;-3.80;72.20;;;;;;5008574;28;20096;-79
2024/01/11 06:06:05;;;;;;;9.18;4.85;;;-3.80;72.10;;;;;;5007774;28;20029;-77
2024/01/11 06:08:30;;;;;;;8.05;4.13;;;-3.80;72.10;;;;;;5006996;28;20022;-77
2024/01/11 06:10:57;;;;;;;9.88;4.93;;;-3.70;72.10;;;;;;5007784;28;20029;-80
2024/01/11 06:13:22;;;;;;;7.85;4.57;;;-3.70;72.10;;;;;;5009187;28;20108;-79
2024/01/11 06:15:48;;;;;;;6.82;4.30;;;-3.70;72.10;;;;;;5008458;28;20116;-81
2024/01/11 06:18:13;;;;;;;8.85;4.45;;;-3.70;72.20;;;;;;5005760;28;20029;-77
2024/01/11 06:20:39;;;;;;;8.40;5.15;;;-3.70;72.10;;;;;;5008821;28;20026;-76
2024/01/11 06:23:04;;;;;;;13.23;7.35;;;-3.70;72.10;;;;;;5009130;28;20025;-81
2024/01/11 06:25:30;;;;;;;15.15;7.57;;;-3.80;72.10;;;;;;5013134;28;20113;-77
2024/01/11 06:27:55;;;;;;;15.18;7.43;;;-3.90;72.20;;;;;;5011444;28;20025;-81
2024/01/11 06:30:21;;;;;;;14.30;6.60;;;-3.90;72.50;;;;;;5008593;28;20107;-77
2024/01/11 06:32:46;;;;;;;13.10;6.80;;;-4.00;72.50;;;;;;5006685;28;20022;-79
2024/01/11 06:35:12;;;;;;;13.65;6.50;;;-4.00;72.70;;;;;;5005254;28;20041;-77
2024/01/11 06:37:38;;;;;;;12.68;6.47;;;-4.00;72.70;;;;;;5003711;28;20492;-76
2024/01/11 06:40:04;;;;;;;11.88;6.40;;;-4.00;72.70;;;;;;5009143;28;20014;-76
2024/01/11 06:42:30;;;;;;;10.25;5.82;;;-4.00;72.70;;;;;;5005454;28;20029;-79
2024/01/11 06:44:57;;;;;;;9.40;5.43;;;-3.90;72.70;;;;;;5005632;28;20125;-77
2024/01/11 06:47:23;;;;;;;10.82;5.95;;;-3.90;72.70;;;;;;5007606;28;20101;-78
2024/01/11 06:49:48;;;;;;;12.20;6.30;;;-3.90;72.70;;;;;;5005980;28;20030;-77
2024/01/11 06:52:14;;;;;;;12.07;6.30;;;-4.00;73.30;;;;;;5004787;28;20026;-79
2024/01/11 06:54:40;;;;;;;13.63;7.22;;;-4.00;72.80;;;;;;5008053;28;20112;-78
2024/01/11 06:57:05;;;;;;;14.15;7.38;;;-4.00;72.70;;;;;;5008488;28;20032;-77
2024/01/11 06:59:31;;;;;;;12.73;6.65;;;-4.00;72.80;;;;;;5008150;28;20021;-79
2024/01/11 07:01:56;;;;;;;14.02;7.15;;;-4.00;72.80;;;;;;5007713;28;20053;-79
2024/01/11 07:04:22;;;;;;;12.75;6.25;;;-4.00;72.90;;;;;;5006958;28;20029;-78
2024/01/11 07:06:48;;;;;;;11.18;6.22;;;-4.00;72.90;;;;;;5011244;28;20026;-79
2024/01/11 07:09:14;;;;;;;11.85;6.10;;;-4.00;73.00;;;;;;5008577;28;20022;-80
2024/01/11 07:11:39;;;;;;;13.23;6.28;;;-4.00;72.90;;;;;;5005961;28;20041;-79
2024/01/11 07:14:05;;;;;;;11.25;5.50;;;-4.00;72.90;;;;;;5009662;28;20026;-79
2024/01/11 07:16:31;;;;;;;10.85;5.47;;;-4.00;72.90;;;;;;5011021;28;20496;-78
2024/01/11 07:18:56;;;;;;;10.23;5.55;;;-4.00;73.00;;;;;;5008072;28;20026;-77
2024/01/11 07:21:29;;;;;;;10.70;5.60;;;-4.10;73.00;;;;;;5011036;28;20563;-79
2024/01/11 07:24:00;;;;;;;8.63;5.45;;;-4.00;73.00;;;;;;5005863;28;20021;-79
2024/01/11 07:26:26;;;;;;;8.57;4.80;;;-4.00;73.00;;;;;;5009835;28;20030;-78
2024/01/11 07:28:54;;;;;;;9.00;4.72;;;-4.00;73.00;;;;;;5003647;28;20423;-79
2024/01/11 07:31:20;;;;;;;9.73;5.32;;;-3.90;73.00;;;;;;5006555;28;20052;-75
2024/01/11 07:33:45;;;;;;;9.27;5.03;;;-3.90;72.90;;;;;;5005945;28;20476;-80
2024/01/11 07:36:11;;;;;;;10.05;5.18;;;-3.80;72.90;;;;;;5006551;28;20025;-77
2024/01/11 07:38:37;;;;;;;10.18;4.78;;;-3.80;72.90;;;;;;5008967;28;20030;-78
2024/01/11 07:41:03;;;;;;;8.65;4.85;;;-3.70;72.90;;;;;;5009314;28;20026;-77
2024/01/11 07:43:28;;;;;;;8.90;4.60;;;-3.70;72.80;;;;;;5007773;28;20022;-79
2024/01/11 07:45:56;;;;;;;9.02;4.93;;;-3.70;72.80;;;;;;5023774;28;20021;-80
2024/01/11 07:48:22;;;;;;;12.18;5.68;;;-3.70;72.70;;;;;;5004931;28;20402;-78
2024/01/11 07:50:48;;;;;;;10.68;5.80;;;-3.80;72.70;;;;;;5012773;28;20527;-79
2024/01/11 07:53:14;;;;;;;11.70;5.70;;;-3.80;72.70;;;;;;5011475;28;20065;-80
2024/01/11 07:55:40;;;;;;;9.32;4.80;;;-3.80;72.70;;;;;;5012067;28;20025;-77
2024/01/11 07:58:06;;;;;;;10.50;5.13;;;-3.80;72.80;;;;;;5012359;28;20021;-80
2024/01/11 08:00:32;;;;;;;10.20;5.20;;;-3.80;72.80;;;;;;5007231;28;20026;-80
2024/01/11 08:02:57;;;;;;;9.60;5.20;;;-3.80;72.90;;;;;;5015052;28;20539;-78
2024/01/11 08:05:23;;;;;;;9.55;5.25;;;-3.80;72.90;;;;;;5007960;28;20057;-81
2024/01/11 08:07:48;;;;;;;9.55;5.45;;;-3.80;72.90;;;;;;5010778;28;20544;-78
2024/01/11 08:10:14;;;;;;;12.75;6.38;;;-3.80;72.80;;;;;;5010372;28;20028;-80
2024/01/11 08:12:40;;;;;;;15.10;7.10;;;-3.80;72.80;;;;;;5008815;28;20053;-78
2024/01/11 08:15:05;;;;;;;12.75;6.85;;;-3.80;72.80;;;;;;5012079;28;20028;-80
2024/01/11 08:17:31;;;;;;;12.93;6.80;;;-3.80;72.90;;;;;;5005926;28;20034;-79
2024/01/11 08:19:56;;;;;;;13.30;7.00;;;-3.80;73.00;;;;;;5010166;28;20058;-80
2024/01/11 08:22:23;;;;;;;11.57;6.03;;;-3.80;72.90;;;;;;5012218;28;20014;-79
2024/01/11 08:24:49;;;;;;;10.52;5.53;;;-3.70;73.00;;;;;;5013664;28;20049;-77
2024/01/11 08:27:17;;;;;;;10.45;5.40;;;-3.70;72.90;;;;;;5011085;28;20053;-80
2024/01/11 08:29:43;;;;;;;10.27;6.03;;;-3.60;72.90;;;;;;5012253;28;20165;-79
2024/01/11 08:32:09;;;;;;;9.77;5.32;;;-3.60;72.80;;;;;;5014644;28;20022;-81
2024/01/11 08:34:34;;;;;;;12.30;6.35;;;-3.60;72.80;;;;;;5012040;28;20610;-81
2024/01/11 08:37:00;;;;;;;12.10;6.00;;;-3.50;72.80;;;;;;5010587;28;20057;-78
2024/01/11 08:39:26;;;;;;;13.98;6.85;;;-3.60;72.70;;;;;;5015800;28;20072;-81
2024/01/11 08:41:52;;;;;;;12.82;6.35;;;-3.50;72.80;;;;;;5011475;28;20036;-80
2024/01/11 08:44:18;;;;;;;15.35;7.22;;;-3.50;72.80;;;;;;5014006;28;20033;-78
2024/01/11 08:46:44;;;;;;;15.02;7.90;;;-3.50;72.80;;;;;;5016066;28;20040;-80
2024/01/11 08:49:09;;;;;;;11.65;6.57;;;-3.50;72.80;;;;;;5010468;28;20034;-79
2024/01/11 08:51:35;;;;;;;17.58;8.23;;;-3.40;72.80;;;;;;5012473;28;20520;-82
2024/01/11 08:54:01;;;;;;;15.52;7.50;;;-3.40;72.80;;;;;;5012359;28;20382;-80
2024/01/11 08:56:27;;;;;;;14.45;6.57;;;-3.40;72.90;;;;;;5011269;28;20022;-81
2024/01/11 08:58:53;;;;;;;14.43;7.25;;;-3.40;72.90;;;;;;5012077;28;20018;-81
2024/01/11 09:01:19;;;;;;;14.27;7.40;;;-3.40;72.90;;;;;;5011872;28;20389;-79
2024/01/11 09:03:44;;;;;;;13.25;6.82;;;-3.30;73.00;;;;;;5012593;28;20198;-81
2024/01/11 09:06:11;;;;;;;13.65;6.60;;;-3.20;73.00;;;;;;5008940;28;20036;-81
2024/01/11 09:08:36;;;;;;;17.05;7.65;;;-3.20;73.00;;;;;;5003720;28;20480;-80
2024/01/11 09:11:03;;;;;;;16.50;8.50;;;-3.10;72.90;;;;;;5012835;28;20056;-79
2024/01/11 09:13:29;;;;;;;13.77;7.15;;;-3.10;72.90;;;;;;5010414;28;20378;-79
2024/01/11 09:15:55;;;;;;;12.45;6.80;;;-3.00;72.90;;;;;;5011591;28;20053;-80
2024/01/11 09:18:21;;;;;;;13.52;6.68;;;-2.90;72.80;;;;;;5010698;28;20036;-78
2024/01/11 09:20:47;;;;;;;14.00;6.80;;;-2.90;72.70;;;;;;5010378;28;20109;-80
2024/01/11 09:23:13;;;;;;;13.90;6.65;;;-2.80;72.70;;;;;;5028645;28;20219;-79
2024/01/11 09:25:39;;;;;;;13.32;6.88;;;-2.70;72.70;;;;;;5013132;28;20022;-81
2024/01/11 09:28:05;;;;;;;15.20;7.63;;;-2.70;72.60;;;;;;5012967;28;20038;-79
2024/01/11 09:30:31;;;;;;;15.75;8.48;;;-2.70;72.70;;;;;;5011067;28;20026;-79
2024/01/11 09:32:57;;;;;;;18.63;9.02;;;-2.70;72.70;;;;;;5004229;28;20048;-79
2024/01/11 09:35:23;;;;;;;17.13;8.60;;;-2.60;72.80;;;;;;5007577;28;25556;-77
2024/01/11 09:37:51;;;;;;;19.27;9.90;;;-2.60;72.80;;;;;;5009358;28;20152;-79
2024/01/11 09:40:18;;;;;;;21.85;10.57;;;-2.60;73.10;;;;;;5012887;28;20095;-78
2024/01/11 09:42:43;;;;;;;20.92;10.45;;;-2.60;73.10;;;;;;5008975;28;20149;-78
2024/01/11 09:45:15;;;;;;;19.58;9.70;;;-2.50;73.10;;;;;;5008881;28;20320;-81
2024/01/11 09:47:41;;;;;;;;;;;-2.50;73.10;;;;;;5010909;28;20068;-77
2024/01/11 09:50:07;;;;;;;18.65;9.45;;;-2.50;73.10;;;;;;5012627;28;19905;-78
2024/01/11 09:52:33;;;;;;;18.52;9.23;;;-2.40;73.10;;;;;;5012760;28;20036;-79
2024/01/11 09:55:02;;;;;;;20.63;9.50;;;-2.30;73.20;;;;;;5008735;28;20026;-78
2024/01/11 09:57:34;;;;;;;17.05;8.30;;;-2.30;73.20;;;;;;5007174;28;20030;-78
2024/01/11 10:00:03;;;;;;;17.27;8.38;;;-2.20;73.10;;;;;;5010909;28;20017;-81
2024/01/11 10:02:29;;;;;;;16.45;8.00;;;-2.10;73.00;;;;;;5001213;28;20512;-78
2024/01/11 10:04:55;;;;;;;13.18;6.65;;;-2.10;72.80;;;;;;5006344;28;20038;-80
2024/01/11 10:07:22;;;;;;;13.57;6.90;;;-2.00;72.80;;;;;;5006383;28;20477;-78
2024/01/11 10:09:49;;;;;;;15.32;7.78;;;-1.90;72.70;;;;;;5008117;28;20038;-79
2024/01/11 10:12:15;;;;;;;14.93;7.55;;;-1.80;72.70;;;;;;5007345;28;20026;-80
2024/01/11 10:14:41;;;;;;;18.23;8.70;;;-1.80;72.70;;;;;;5010553;28;20022;-81
2024/01/11 10:17:07;;;;;;;18.40;8.88;;;-1.70;72.70;;;;;;5009352;28;20029;-79
2024/01/11 10:19:32;;;;;;;17.13;8.52;;;-1.70;72.60;;;;;;5007196;28;20029;-79
2024/01/11 10:22:01;;;;;;;14.25;7.57;;;-1.60;72.70;;;;;;5011919;28;20022;-76
2024/01/11 10:24:28;;;;;;;14.88;7.85;;;-1.60;72.80;;;;;;5009072;28;20112;-80
2024/01/11 10:26:58;;;;;;;13.25;6.60;;;-1.60;72.80;;;;;;5008823;28;20533;-80
2024/01/11 10:29:31;;;;;;;19.95;9.77;;;-1.50;72.90;;;;;;5008092;28;20025;-79
2024/01/11 10:31:56;;;;;;;17.88;8.70;;;-1.50;73.80;;;;;;5005296;28;20026;-81
2024/01/11 10:34:24;;;;;;;15.50;7.28;;;-1.50;73.60;;;;;;5009738;28;20033;-80
2024/01/11 10:36:50;;;;;;;13.60;6.80;;;-1.50;73.80;;;;;;5005349;28;20108;-79
2024/01/11 10:39:17;;;;;;;15.10;7.35;;;-1.40;73.80;;;;;;5008931;28;20018;-80
2024/01/11 10:41:50;;;;;;;13.65;6.70;;;-1.30;75.20;;;;;;4999035;28;20014;-77
2024/01/11 10:44:23;;;;;;;11.10;5.95;;;-1.40;75.30;;;;;;5006595;28;20113;-79
2024/01/11 10:46:49;;;;;;;9.38;4.70;;;-1.30;75.30;;;;;;5001394;28;20068;-77
2024/01/11 10:49:19;;;;;;;8.93;4.00;;;-1.20;75.00;;;;;;5007187;28;20029;-79
2024/01/11 10:52:00;;;;;;;10.30;4.60;;;-1.20;74.90;;;;;;5007254;28;20060;-76
2024/01/11 10:54:28;;;;;;;7.53;3.73;;;-1.20;75.10;;;;;;5005171;28;20409;-79
2024/01/11 10:56:54;;;;;;;10.50;4.88;;;-1.10;75.60;;;;;;5007900;28;20276;-80
2024/01/11 10:59:25;;;;;;;8.48;4.00;;;-1.10;75.40;;;;;;5007524;28;20029;-77
2024/01/11 11:01:58;;;;;;;7.25;3.30;;;-1.00;75.40;;;;;;5007918;28;20030;-78
2024/01/11 11:04:25;;;;;;;7.13;3.72;;;-1.00;75.40;;;;;;5008984;28;20034;-79
2024/01/11 11:06:54;;;;;;;7.75;3.75;;;-0.90;75.50;;;;;;5008408;28;20022;-76
2024/01/11 11:09:21;;;;;;;10.65;4.25;;;-0.80;75.40;;;;;;5021507;28;20030;-78
2024/01/11 11:11:47;;;;;;;8.90;4.10;;;-0.80;75.40;;;;;;5003343;28;20482;-80
2024/01/11 11:14:15;;;;;;;8.02;3.50;;;-0.80;75.60;;;;;;5001241;28;20101;-78
2024/01/11 11:16:41;;;;;;;8.30;3.78;;;-0.70;75.90;;;;;;5006012;28;20448;-79
2024/01/11 11:19:07;;;;;;;9.35;3.78;;;-0.70;76.00;;;;;;5007890;28;20076;-79
2024/01/11 11:21:41;;;;;;;8.50;3.83;;;-0.60;76.00;;;;;;5010469;28;20021;-80
2024/01/11 11:24:07;;;;;;;7.40;3.10;;;-0.50;76.00;;;;;;5011038;28;20026;-78
2024/01/11 11:26:32;;;;;;;8.25;3.70;;;-0.40;76.00;;;;;;5012125;28;20033;-81
2024/01/11 11:28:58;;;;;;;8.18;3.20;;;-0.30;75.80;;;;;;5010459;28;20087;-77
2024/01/11 11:31:37;;;;;;;5.57;2.70;;;-0.20;75.70;;;;;;5010724;28;20029;-81
2024/01/11 11:34:06;;;;;;;5.22;2.67;;;-0.10;75.70;;;;;;5011405;28;20022;-79
2024/01/11 11:36:34;;;;;;;7.30;2.70;;;-0.10;75.70;;;;;;5028206;28;20504;-79
2024/01/11 11:39:01;;;;;;;6.20;2.70;;;-0.10;75.70;;;;;;5012575;28;20710;-80
2024/01/11 11:41:27;;;;;;;5.50;2.70;;;0.00;75.90;;;;;;5011501;28;20022;-79
2024/01/11 11:43:53;;;;;;;6.78;2.70;;;0.10;75.90;;;;;;5012361;28;20020;-81
2024/01/11 11:46:19;;;;;;;5.57;2.92;;;0.20;75.80;;;;;;5005712;28;20014;-80
2024/01/11 11:48:51;;;;;;;5.82;2.70;;;0.20;75.70;;;;;;5006775;28;20038;-78
2024/01/11 11:51:18;;;;;;;8.23;2.70;;;0.30;75.90;;;;;;5009950;28;20030;-81
2024/01/11 11:53:45;;;;;;;7.43;2.95;;;0.30;76.50;;;;;;5001390;28;20018;-79
2024/01/11 11:56:14;;;;;;;5.97;3.03;;;0.30;75.90;;;;;;4996471;28;20030;-78
2024/01/11 11:58:40;;;;;;;7.15;2.92;;;0.40;76.00;;;;;;5007880;28;20552;-77
2024/01/11 12:01:06;;;;;;;6.72;3.05;;;0.40;76.10;;;;;;5010404;28;20026;-79
2024/01/11 12:03:33;;;;;;;6.82;3.15;;;0.40;76.30;;;;;;5009470;28;20018;-79
2024/01/11 12:06:00;;;;;;;5.28;2.70;;;0.40;76.80;;;;;;5011085;28;20037;-79
2024/01/11 12:08:25;;;;;;;4.78;2.25;;;0.50;76.80;;;;;;5011759;28;20400;-78
2024/01/11 12:10:52;;;;;;;5.72;2.83;;;0.60;76.70;;;;;;5009928;28;20109;-77
2024/01/11 12:13:21;;;;;;;5.75;2.53;;;0.60;76.50;;;;;;5010858;28;20018;-80
2024/01/11 12:15:47;;;;;;;4.65;2.13;;;0.70;76.50;;;;;;5009973;28;20092;-79
2024/01/11 12:18:12;;;;;;;6.18;2.75;;;0.70;76.60;;;;;;5011263;28;20473;-77
2024/01/11 12:20:38;;;;;;;6.53;2.90;;;0.70;76.50;;;;;;5011556;28;20030;-80
2024/01/11 12:23:04;;;;;;;7.32;2.92;;;0.80;76.60;;;;;;5012664;28;20385;-77
2024/01/11 12:25:31;;;;;;;6.63;3.08;;;0.80;76.80;;;;;;5019791;28;20052;-79
2024/01/11 12:27:57;;;;;;;5.97;2.90;;;0.80;76.70;;;;;;5010482;28;20032;-77
2024/01/11 12:30:23;;;;;;;5.40;2.63;;;0.80;76.80;;;;;;5013093;28;20026;-82
2024/01/11 12:32:56;;;;;;;5.38;2.47;;;0.90;76.80;;;;;;5011239;28;20151;-78
2024/01/11 12:35:22;;;;;;;2.75;1.70;;;1.00;76.80;;;;;;5009203;28;20556;-80
2024/01/11 12:38:02;;;;;;;3.92;2.17;;;1.10;76.70;;;;;;5010930;28;20029;-79